Back to Top

Language: 

My Weather Underground Personal Weather Station Historical Data with Graphs...

Delerius Weather Station Historical Data
Daily Summary for May 23, 2017 Units:  English    Metric   Both
« Previous Day
Next Day »
Daily Weekly Monthly Yearly Custom
  High: Low: Average:
Temperature: 72.9 °F 52.2 °F 62.6 °F
Dew Point: 53.3 °F 44.8 °F 49.8 °F
Humidity: 89 % 40 % 65 %
Wind Speed: 12.0 mph 0.0 mph 7.4 mph
Wind Gust: 22.0 mph - -
Wind:- - WNW
Pressure: 30.21 in 29.94 in -
Precipitation: 0.00 in    
Historical Graphs
 
 
Tabular Data for May 23, 2017
Time Temperature Dew Point Pressure Wind Wind Speed Wind Gust Humidity Rainfall Rate (Hourly) solar Conditions
00:02 55.6 °F 48.1 °F 29.94 in WNW 4.0 mph 9.0 mph 76 % 0.00 in 0 W/m2
00:07 55.4 °F 48.3 °F 29.94 in NW 4.0 mph 8.0 mph 77 % 0.00 in 0 W/m2
00:12 55.2 °F 48.1 °F 29.94 in NW 4.0 mph 10.0 mph 77 % 0.00 in 0 W/m2
00:17 55.0 °F 48.0 °F 29.94 in WNW 5.0 mph 10.0 mph 77 % 0.00 in 0 W/m2
00:22 55.0 °F 48.0 °F 29.94 in WNW 7.0 mph 12.0 mph 77 % 0.00 in 0 W/m2
00:27 55.0 °F 48.0 °F 29.94 in WNW 7.0 mph 13.0 mph 77 % 0.00 in 0 W/m2
00:32 55.0 °F 48.0 °F 29.94 in WNW 8.0 mph 15.0 mph 77 % 0.00 in 0 W/m2
00:37 55.0 °F 48.0 °F 29.94 in WNW 6.0 mph 15.0 mph 77 % 0.00 in 0 W/m2
00:42 55.0 °F 48.0 °F 29.94 in West 3.0 mph 11.0 mph 77 % 0.00 in 0 W/m2
00:47 54.9 °F 48.1 °F 29.94 in West 2.0 mph 7.0 mph 78 % 0.00 in 0 W/m2
00:52 54.9 °F 48.1 °F 29.94 in West 4.0 mph 9.0 mph 78 % 0.00 in 0 W/m2
00:57 54.7 °F 48.0 °F 29.94 in West 5.0 mph 9.0 mph 78 % 0.00 in 0 W/m2
01:02 54.3 °F 47.6 °F 29.94 in West 5.0 mph 8.0 mph 78 % 0.00 in 0 W/m2
01:07 54.1 °F 47.8 °F 29.94 in West 5.0 mph 10.0 mph 79 % 0.00 in 0 W/m2
01:12 54.1 °F 48.1 °F 29.94 in West 6.0 mph 12.0 mph 80 % 0.00 in 0 W/m2
01:17 54.1 °F 48.1 °F 29.94 in WNW 6.0 mph 12.0 mph 80 % 0.00 in 0 W/m2
01:22 54.1 °F 48.1 °F 29.94 in WNW 5.0 mph 9.0 mph 80 % 0.00 in 0 W/m2
01:27 54.0 °F 47.9 °F 29.94 in West 4.0 mph 10.0 mph 80 % 0.00 in 0 W/m2
01:32 54.0 °F 47.9 °F 29.94 in West 3.0 mph 10.0 mph 80 % 0.00 in 0 W/m2
01:37 54.0 °F 48.3 °F 29.95 in WNW 2.0 mph 5.0 mph 81 % 0.00 in 0 W/m2
01:43 53.8 °F 48.1 °F 29.95 in WNW 3.0 mph 11.0 mph 81 % 0.00 in 0 W/m2
01:48 54.0 °F 48.6 °F 29.95 in WNW 6.0 mph 14.0 mph 82 % 0.00 in 0 W/m2
01:53 54.1 °F 48.8 °F 29.95 in WNW 8.0 mph 14.0 mph 82 % 0.00 in 0 W/m2
01:58 54.1 °F 48.8 °F 29.95 in WNW 8.0 mph 16.0 mph 82 % 0.00 in 0 W/m2
02:03 54.3 °F 48.6 °F 29.95 in West 9.0 mph 19.0 mph 81 % 0.00 in 0 W/m2
02:08 54.3 °F 48.6 °F 29.95 in West 9.0 mph 19.0 mph 81 % 0.00 in 0 W/m2
02:13 54.3 °F 48.9 °F 29.96 in West 8.0 mph 14.0 mph 82 % 0.00 in 0 W/m2
02:18 54.1 °F 48.8 °F 29.96 in West 7.0 mph 12.0 mph 82 % 0.00 in 0 W/m2
02:23 54.0 °F 48.6 °F 29.96 in West 8.0 mph 15.0 mph 82 % 0.00 in 0 W/m2
02:28 53.8 °F 48.7 °F 29.96 in WNW 8.0 mph 15.0 mph 83 % 0.00 in 0 W/m2
02:33 54.0 °F 48.9 °F 29.97 in WNW 8.0 mph 14.0 mph 83 % 0.00 in 0 W/m2
02:38 54.0 °F 48.9 °F 29.98 in WNW 9.0 mph 14.0 mph 83 % 0.00 in 0 W/m2
02:43 53.8 °F 49.1 °F 29.98 in WNW 9.0 mph 16.0 mph 84 % 0.00 in 0 W/m2
02:48 53.8 °F 49.1 °F 29.98 in WNW 9.0 mph 16.0 mph 84 % 0.00 in 0 W/m2
02:53 53.8 °F 49.1 °F 29.98 in WNW 9.0 mph 16.0 mph 84 % 0.00 in 0 W/m2
02:58 53.8 °F 49.1 °F 29.98 in WNW 9.0 mph 16.0 mph 84 % 0.00 in 0 W/m2
03:03 53.8 °F 49.1 °F 29.98 in WNW 10.0 mph 16.0 mph 84 % 0.00 in 0 W/m2
03:08 53.8 °F 49.1 °F 29.98 in WNW 10.0 mph 18.0 mph 84 % 0.00 in 0 W/m2
03:13 53.8 °F 49.1 °F 29.98 in WNW 9.0 mph 18.0 mph 84 % 0.00 in 0 W/m2
03:18 53.6 °F 48.9 °F 29.98 in West 9.0 mph 15.0 mph 84 % 0.00 in 0 W/m2
03:23 53.4 °F 48.7 °F 29.98 in West 9.0 mph 15.0 mph 84 % 0.00 in 0 W/m2
03:28 53.4 °F 49.0 °F 29.99 in WNW 9.0 mph 15.0 mph 85 % 0.00 in 0 W/m2
03:33 53.4 °F 49.0 °F 29.98 in WNW 9.0 mph 15.0 mph 85 % 0.00 in 0 W/m2
03:38 53.2 °F 48.8 °F 29.98 in West 9.0 mph 15.0 mph 85 % 0.00 in 0 W/m2
03:44 53.2 °F 49.2 °F 29.98 in West 9.0 mph 15.0 mph 86 % 0.00 in 0 W/m2
03:49 53.1 °F 49.0 °F 29.98 in West 8.0 mph 13.0 mph 86 % 0.00 in 0 W/m2
03:54 53.1 °F 49.0 °F 29.98 in WNW 7.0 mph 11.0 mph 86 % 0.00 in 0 W/m2
03:59 52.9 °F 48.8 °F 29.98 in WNW 7.0 mph 12.0 mph 86 % 0.00 in 0 W/m2
04:04 52.9 °F 49.1 °F 29.98 in WNW 8.0 mph 14.0 mph 87 % 0.00 in 0 W/m2
04:09 52.7 °F 48.9 °F 29.98 in WNW 8.0 mph 14.0 mph 87 % 0.00 in 0 W/m2
04:14 52.7 °F 48.9 °F 29.98 in WNW 8.0 mph 13.0 mph 87 % 0.00 in 0 W/m2
04:19 52.7 °F 48.9 °F 29.99 in WNW 7.0 mph 12.0 mph 87 % 0.00 in 0 W/m2
04:24 52.5 °F 48.8 °F 29.99 in WNW 6.0 mph 11.0 mph 87 % 0.00 in 0 W/m2
04:29 52.5 °F 48.8 °F 29.99 in WNW 6.0 mph 10.0 mph 87 % 0.00 in 0 W/m2
04:34 52.3 °F 48.6 °F 29.99 in WNW 6.0 mph 9.0 mph 87 % 0.00 in 0 W/m2
04:39 52.3 °F 48.9 °F 29.99 in WNW 6.0 mph 9.0 mph 88 % 0.00 in 0 W/m2
04:44 52.3 °F 48.9 °F 30.00 in WNW 5.0 mph 9.0 mph 88 % 0.00 in 0 W/m2
04:49 52.3 °F 48.9 °F 30.00 in WNW 5.0 mph 9.0 mph 88 % 0.00 in 0 W/m2
04:54 52.2 °F 48.7 °F 30.00 in WNW 5.0 mph 9.0 mph 88 % 0.00 in 5 W/m2
04:59 52.2 °F 48.7 °F 30.00 in WNW 5.0 mph 10.0 mph 88 % 0.00 in 7 W/m2
05:04 52.2 °F 48.7 °F 30.00 in WNW 6.0 mph 10.0 mph 88 % 0.00 in 11 W/m2
05:09 52.2 °F 48.7 °F 30.00 in WNW 6.0 mph 11.0 mph 88 % 0.00 in 14 W/m2
05:14 52.2 °F 48.7 °F 30.00 in WNW 7.0 mph 11.0 mph 88 % 0.00 in 19 W/m2
05:19 52.2 °F 49.0 °F 30.00 in WNW 7.0 mph 12.0 mph 89 % 0.00 in 25 W/m2
05:24 52.3 °F 49.2 °F 30.01 in WNW 7.0 mph 12.0 mph 89 % 0.00 in 32 W/m2
05:29 52.3 °F 49.2 °F 30.01 in WNW 7.0 mph 12.0 mph 89 % 0.00 in 37 W/m2
05:34 52.3 °F 49.2 °F 30.01 in WNW 6.0 mph 10.0 mph 89 % 0.00 in 42 W/m2
05:39 52.5 °F 49.4 °F 30.01 in WNW 6.0 mph 10.0 mph 89 % 0.00 in 49 W/m2
05:44 52.7 °F 49.5 °F 30.01 in WNW 6.0 mph 10.0 mph 89 % 0.00 in 47 W/m2
05:49 52.9 °F 49.7 °F 30.01 in WNW 6.0 mph 10.0 mph 89 % 0.00 in 46 W/m2
05:54 53.1 °F 49.6 °F 30.01 in WNW 6.0 mph 11.0 mph 88 % 0.00 in 47 W/m2
05:59 53.1 °F 49.6 °F 30.02 in WNW 6.0 mph 11.0 mph 88 % 0.00 in 65 W/m2
06:04 53.2 °F 50.1 °F 30.02 in WNW 5.0 mph 10.0 mph 89 % 0.00 in 90 W/m2
06:09 53.4 °F 50.3 °F 30.02 in WNW 6.0 mph 11.0 mph 89 % 0.00 in 125 W/m2
06:14 53.8 °F 50.3 °F 30.02 in WNW 6.0 mph 11.0 mph 88 % 0.00 in 107 W/m2
06:19 54.0 °F 50.5 °F 30.02 in WNW 6.0 mph 11.0 mph 88 % 0.00 in 84 W/m2
06:24 54.1 °F 50.7 °F 30.02 in WNW 6.0 mph 11.0 mph 88 % 0.00 in 83 W/m2
06:29 54.3 °F 50.5 °F 30.02 in WNW 6.0 mph 11.0 mph 87 % 0.00 in 84 W/m2
06:34 54.5 °F 50.7 °F 30.03 in West 6.0 mph 11.0 mph 87 % 0.00 in 77 W/m2
06:40 54.7 °F 50.6 °F 30.03 in West 6.0 mph 10.0 mph 86 % 0.00 in 76 W/m2
06:45 54.9 °F 50.8 °F 30.03 in West 5.0 mph 10.0 mph 86 % 0.00 in 93 W/m2
06:50 54.9 °F 50.8 °F 30.03 in WNW 5.0 mph 8.0 mph 86 % 0.00 in 102 W/m2
06:55 55.0 °F 50.9 °F 30.03 in West 5.0 mph 10.0 mph 86 % 0.00 in 102 W/m2
07:00 55.2 °F 51.1 °F 30.04 in West 6.0 mph 10.0 mph 86 % 0.00 in 107 W/m2
07:10 55.8 °F 51.3 °F 30.04 in West 6.0 mph 11.0 mph 85 % 0.00 in 123 W/m2
07:15 56.1 °F 51.4 °F 30.04 in West 7.0 mph 13.0 mph 84 % 0.00 in 199 W/m2
07:20 56.5 °F 51.4 °F 30.04 in West 9.0 mph 14.0 mph 83 % 0.00 in 322 W/m2
07:25 56.8 °F 51.7 °F 30.04 in West 8.0 mph 14.0 mph 83 % 0.00 in 276 W/m2
07:30 57.4 °F 51.9 °F 30.04 in West 8.0 mph 12.0 mph 82 % 0.00 in 330 W/m2
07:35 57.6 °F 51.8 °F 30.04 in West 7.0 mph 12.0 mph 81 % 0.00 in 186 W/m2
07:40 57.9 °F 52.1 °F 30.04 in West 6.0 mph 13.0 mph 81 % 0.00 in 334 W/m2
07:45 58.5 °F 52.3 °F 30.04 in West 7.0 mph 13.0 mph 80 % 0.00 in 144 W/m2
07:50 58.6 °F 52.1 °F 30.05 in West 8.0 mph 13.0 mph 79 % 0.00 in 202 W/m2
07:55 58.6 °F 52.1 °F 30.05 in West 7.0 mph 12.0 mph 79 % 0.00 in 441 W/m2
08:01 59.0 °F 52.8 °F 30.05 in West 6.0 mph 11.0 mph 80 % 0.00 in 417 W/m2
08:02 59.2 °F 52.7 °F 30.05 in West 6.0 mph 11.0 mph 79 % 0.00 in 413 W/m2
08:07 59.9 °F 53.0 °F 30.05 in West 7.0 mph 11.0 mph 78 % 0.00 in 436 W/m2
08:12 60.3 °F 53.0 °F 30.05 in West 7.0 mph 11.0 mph 77 % 0.00 in 392 W/m2
08:17 60.6 °F 52.6 °F 30.05 in West 7.0 mph 11.0 mph 75 % 0.00 in 459 W/m2
08:22 61.3 °F 53.3 °F 30.05 in West 6.0 mph 11.0 mph 75 % 0.00 in 436 W/m2
08:27 61.5 °F 52.4 °F 30.06 in West 7.0 mph 13.0 mph 72 % 0.00 in 482 W/m2
08:32 61.9 °F 52.4 °F 30.06 in West 8.0 mph 13.0 mph 71 % 0.00 in 496 W/m2
08:37 61.9 °F 52.0 °F 30.06 in West 8.0 mph 12.0 mph 70 % 0.00 in 483 W/m2
08:42 62.2 °F 51.9 °F 30.06 in West 8.0 mph 13.0 mph 69 % 0.00 in 513 W/m2
08:47 62.8 °F 52.5 °F 30.06 in West 7.0 mph 13.0 mph 69 % 0.00 in 533 W/m2
08:52 63.0 °F 51.8 °F 30.06 in West 7.0 mph 13.0 mph 67 % 0.00 in 132 W/m2
08:57 62.8 °F 52.5 °F 30.06 in West 7.0 mph 13.0 mph 69 % 0.00 in 132 W/m2
09:02 63.0 °F 52.2 °F 30.06 in West 7.0 mph 13.0 mph 68 % 0.00 in 132 W/m2
09:07 63.1 °F 51.6 °F 30.06 in WNW 8.0 mph 14.0 mph 66 % 0.00 in 654 W/m2
09:12 63.1 °F 52.0 °F 30.07 in West 9.0 mph 14.0 mph 67 % 0.00 in 128 W/m2
09:17 63.3 °F 52.2 °F 30.06 in West 7.0 mph 12.0 mph 67 % 0.00 in 729 W/m2
09:22 63.5 °F 52.3 °F 30.07 in West 6.0 mph 10.0 mph 67 % 0.00 in 221 W/m2
09:27 63.7 °F 52.9 °F 30.07 in West 7.0 mph 11.0 mph 68 % 0.00 in 751 W/m2
09:32 63.9 °F 52.3 °F 30.07 in West 8.0 mph 16.0 mph 66 % 0.00 in 788 W/m2
09:37 64.0 °F 52.4 °F 30.07 in West 9.0 mph 16.0 mph 66 % 0.00 in 807 W/m2
09:43 64.2 °F 52.2 °F 30.07 in West 10.0 mph 16.0 mph 65 % 0.00 in 807 W/m2
09:48 64.0 °F 51.6 °F 30.07 in West 10.0 mph 15.0 mph 64 % 0.00 in 285 W/m2
09:53 64.0 °F 52.0 °F 30.07 in West 10.0 mph 15.0 mph 65 % 0.00 in 844 W/m2
09:58 64.6 °F 52.5 °F 30.07 in West 9.0 mph 13.0 mph 65 % 0.00 in 791 W/m2
10:03 65.1 °F 52.2 °F 30.07 in West 9.0 mph 15.0 mph 63 % 0.00 in 807 W/m2
10:05 65.1 °F 51.8 °F 30.07 in West 9.0 mph 16.0 mph 62 % 0.00 in 285 W/m2
10:10 65.3 °F 52.4 °F 30.07 in WNW 8.0 mph 16.0 mph 63 % 0.00 in 278 W/m2
10:15 65.3 °F 52.4 °F 30.08 in WNW 8.0 mph 14.0 mph 63 % 0.00 in 290 W/m2
10:20 65.1 °F 52.2 °F 30.08 in WNW 8.0 mph 15.0 mph 63 % 0.00 in 359 W/m2
10:25 65.1 °F 52.2 °F 30.08 in WNW 8.0 mph 15.0 mph 63 % 0.00 in 264 W/m2
10:30 64.9 °F 52.0 °F 30.08 in West 8.0 mph 16.0 mph 63 % 0.00 in 264 W/m2
10:35 64.6 °F 52.1 °F 30.08 in West 9.0 mph 16.0 mph 64 % 0.00 in 418 W/m2
10:40 64.8 °F 52.7 °F 30.08 in West 8.0 mph 14.0 mph 65 % 0.00 in 195 W/m2
10:45 64.9 °F 52.0 °F 30.09 in WNW 8.0 mph 18.0 mph 63 % 0.00 in 861 W/m2
10:50 65.5 °F 52.5 °F 30.09 in WNW 10.0 mph 18.0 mph 63 % 0.00 in 250 W/m2
10:55 65.5 °F 51.7 °F 30.09 in West 10.0 mph 19.0 mph 61 % 0.00 in 160 W/m2
11:00 65.7 °F 51.8 °F 30.09 in WNW 10.0 mph 19.0 mph 61 % 0.00 in 865 W/m2
11:06 66.6 °F 52.2 °F 30.09 in WNW 11.0 mph 21.0 mph 60 % 0.00 in 991 W/m2
11:11 66.9 °F 52.6 °F 30.09 in WNW 9.0 mph 21.0 mph 60 % 0.00 in 951 W/m2
11:16 67.3 °F 51.5 °F 30.10 in WNW 9.0 mph 21.0 mph 57 % 0.00 in 888 W/m2
11:21 67.5 °F 51.7 °F 30.09 in WNW 10.0 mph 21.0 mph 57 % 0.00 in 882 W/m2
11:26 67.6 °F 51.4 °F 30.09 in West 11.0 mph 22.0 mph 56 % 0.00 in 805 W/m2
11:31 67.6 °F 51.4 °F 30.09 in West 11.0 mph 22.0 mph 56 % 0.00 in 896 W/m2
11:36 68.2 °F 51.9 °F 30.09 in West 9.0 mph 20.0 mph 56 % 0.00 in 991 W/m2
11:41 68.4 °F 51.6 °F 30.09 in WNW 9.0 mph 16.0 mph 55 % 0.00 in 984 W/m2
11:46 68.5 °F 51.2 °F 30.09 in West 10.0 mph 18.0 mph 54 % 0.00 in 1044 W/m2
11:51 68.2 °F 50.9 °F 30.09 in West 11.0 mph 18.0 mph 54 % 0.00 in 1005 W/m2
11:56 68.5 °F 51.7 °F 30.09 in West 10.0 mph 18.0 mph 55 % 0.00 in 1056 W/m2
12:01 68.2 °F 50.9 °F 30.09 in West 10.0 mph 16.0 mph 54 % 0.00 in 214 W/m2
12:06 68.4 °F 51.6 °F 30.09 in West 9.0 mph 16.0 mph 55 % 0.00 in 990 W/m2
12:11 68.5 °F 51.2 °F 30.09 in West 9.0 mph 18.0 mph 54 % 0.00 in 1037 W/m2
12:16 68.4 °F 51.6 °F 30.09 in West 10.0 mph 19.0 mph 55 % 0.00 in 904 W/m2
12:21 68.9 °F 51.6 °F 30.09 in West 10.0 mph 19.0 mph 54 % 0.00 in 933 W/m2
12:26 69.4 °F 52.1 °F 30.09 in WNW 9.0 mph 19.0 mph 54 % 0.00 in 986 W/m2
12:31 69.8 °F 51.9 °F 30.09 in WNW 9.0 mph 19.0 mph 53 % 0.00 in 1032 W/m2
12:36 69.6 °F 51.7 °F 30.09 in WNW 8.0 mph 19.0 mph 53 % 0.00 in 320 W/m2
12:41 69.4 °F 51.0 °F 30.10 in WNW 9.0 mph 20.0 mph 52 % 0.00 in 246 W/m2
12:46 69.3 °F 50.9 °F 30.10 in West 10.0 mph 20.0 mph 52 % 0.00 in 1021 W/m2
12:51 69.3 °F 51.4 °F 30.10 in West 10.0 mph 18.0 mph 53 % 0.00 in 972 W/m2
12:56 70.0 °F 52.1 °F 30.10 in WNW 9.0 mph 15.0 mph 53 % 0.00 in 988 W/m2
13:01 70.3 °F 52.4 °F 30.10 in NW 9.0 mph 16.0 mph 53 % 0.00 in 977 W/m2
13:06 70.5 °F 52.0 °F 30.10 in NW 9.0 mph 19.0 mph 52 % 0.00 in 1007 W/m2
13:11 70.5 °F 50.4 °F 30.10 in WNW 8.0 mph 19.0 mph 49 % 0.00 in 942 W/m2
13:16 70.5 °F 51.0 °F 30.10 in WNW 7.0 mph 15.0 mph 50 % 0.00 in 956 W/m2
13:21 70.5 °F 52.0 °F 30.10 in West 8.0 mph 15.0 mph 52 % 0.00 in 967 W/m2
13:26 70.9 °F 52.4 °F 30.10 in WNW 9.0 mph 15.0 mph 52 % 0.00 in 951 W/m2
13:27 71.1 °F 51.5 °F 30.10 in WNW 9.0 mph 15.0 mph 50 % 0.00 in 981 W/m2
13:32 71.4 °F 51.8 °F 30.10 in WNW 8.0 mph 15.0 mph 50 % 0.00 in 185 W/m2
13:37 71.4 °F 51.8 °F 30.10 in NW 8.0 mph 14.0 mph 50 % 0.00 in 912 W/m2
13:42 71.8 °F 51.6 °F 30.10 in WNW 9.0 mph 18.0 mph 49 % 0.00 in 889 W/m2
13:47 71.2 °F 51.6 °F 30.10 in WNW 9.0 mph 18.0 mph 50 % 0.00 in 937 W/m2
13:52 71.2 °F 51.1 °F 30.10 in WNW 8.0 mph 18.0 mph 49 % 0.00 in 949 W/m2
13:58 71.4 °F 51.3 °F 30.10 in WNW 9.0 mph 20.0 mph 49 % 0.00 in 907 W/m2
14:03 72.0 °F 50.6 °F 30.11 in WNW 10.0 mph 20.0 mph 47 % 0.00 in 863 W/m2
14:08 72.1 °F 50.8 °F 30.11 in WNW 9.0 mph 18.0 mph 47 % 0.00 in 835 W/m2
14:13 72.0 °F 51.2 °F 30.11 in WNW 9.0 mph 18.0 mph 48 % 0.00 in 828 W/m2
14:18 72.0 °F 50.6 °F 30.10 in WNW 9.0 mph 16.0 mph 47 % 0.00 in 795 W/m2
14:19 72.0 °F 50.6 °F 30.11 in West 9.0 mph 16.0 mph 47 % 0.00 in 851 W/m2
14:24 72.1 °F 50.8 °F 30.11 in WNW 9.0 mph 16.0 mph 47 % 0.00 in 846 W/m2
14:29 72.1 °F 51.9 °F 30.11 in WNW 9.0 mph 16.0 mph 49 % 0.00 in 846 W/m2
14:34 72.3 °F 52.1 °F 30.11 in WNW 8.0 mph 15.0 mph 49 % 0.00 in 881 W/m2
14:39 72.1 °F 51.4 °F 30.11 in West 9.0 mph 16.0 mph 48 % 0.00 in 770 W/m2
14:44 72.1 °F 51.4 °F 30.11 in WNW 10.0 mph 19.0 mph 48 % 0.00 in 700 W/m2
14:50 72.0 °F 51.8 °F 30.11 in WNW 9.0 mph 19.0 mph 49 % 0.00 in 654 W/m2
14:55 71.8 °F 51.0 °F 30.11 in WNW 9.0 mph 18.0 mph 48 % 0.00 in 577 W/m2
15:00 71.4 °F 51.3 °F 30.11 in WNW 9.0 mph 16.0 mph 49 % 0.00 in 693 W/m2
15:05 71.8 °F 52.1 °F 30.11 in WNW 9.0 mph 16.0 mph 50 % 0.00 in 824 W/m2
15:10 72.1 °F 51.9 °F 30.11 in WNW 9.0 mph 19.0 mph 49 % 0.00 in 731 W/m2
15:15 72.0 °F 52.3 °F 30.11 in WNW 9.0 mph 19.0 mph 50 % 0.00 in 731 W/m2
15:20 71.8 °F 51.0 °F 30.11 in West 8.0 mph 15.0 mph 48 % 0.00 in 763 W/m2
15:25 72.1 °F 50.8 °F 30.11 in West 9.0 mph 18.0 mph 47 % 0.00 in 779 W/m2
15:30 72.1 °F 50.8 °F 30.11 in West 10.0 mph 19.0 mph 47 % 0.00 in 691 W/m2
15:35 72.1 °F 50.2 °F 30.11 in West 8.0 mph 19.0 mph 46 % 0.00 in 744 W/m2
15:40 72.5 °F 51.1 °F 30.11 in WNW 7.0 mph 14.0 mph 47 % 0.00 in 721 W/m2
15:45 72.9 °F 51.4 °F 30.11 in WNW 8.0 mph 16.0 mph 47 % 0.00 in 645 W/m2
15:50 72.7 °F 50.7 °F 30.11 in WNW 9.0 mph 18.0 mph 46 % 0.00 in 708 W/m2
15:55 72.7 °F 50.7 °F 30.11 in WNW 10.0 mph 18.0 mph 46 % 0.00 in 737 W/m2
16:00 72.7 °F 50.1 °F 30.11 in WNW 11.0 mph 19.0 mph 45 % 0.00 in 654 W/m2
16:01 72.5 °F 49.9 °F 30.11 in WNW 11.0 mph 19.0 mph 45 % 0.00 in 654 W/m2
16:06 72.3 °F 49.8 °F 30.11 in WNW 11.0 mph 20.0 mph 45 % 0.00 in 629 W/m2
16:11 72.3 °F 50.4 °F 30.11 in WNW 10.0 mph 20.0 mph 46 % 0.00 in 677 W/m2
16:16 72.3 °F 49.8 °F 30.11 in WNW 8.0 mph 14.0 mph 45 % 0.00 in 675 W/m2
16:21 72.3 °F 49.8 °F 30.11 in WNW 9.0 mph 18.0 mph 45 % 0.00 in 635 W/m2
16:26 72.1 °F 48.4 °F 30.11 in WNW 10.0 mph 18.0 mph 43 % 0.00 in 640 W/m2
16:31 72.1 °F 47.8 °F 30.12 in WNW 11.0 mph 20.0 mph 42 % 0.00 in 626 W/m2
16:36 72.0 °F 47.6 °F 30.11 in WNW 11.0 mph 20.0 mph 42 % 0.00 in 608 W/m2
16:41 72.0 °F 47.6 °F 30.12 in WNW 10.0 mph 18.0 mph 42 % 0.00 in 594 W/m2
16:46 72.0 °F 47.6 °F 30.11 in NW 10.0 mph 18.0 mph 42 % 0.00 in 587 W/m2
16:48 72.0 °F 47.0 °F 30.11 in WNW 10.0 mph 18.0 mph 41 % 0.00 in 578 W/m2
16:53 72.1 °F 47.1 °F 30.12 in WNW 9.0 mph 18.0 mph 41 % 0.00 in 571 W/m2
16:58 72.3 °F 47.9 °F 30.12 in WNW 10.0 mph 19.0 mph 42 % 0.00 in 555 W/m2
17:03 72.3 °F 46.6 °F 30.12 in WNW 11.0 mph 19.0 mph 40 % 0.00 in 533 W/m2
17:08 72.1 °F 47.1 °F 30.12 in West 11.0 mph 16.0 mph 41 % 0.00 in 520 W/m2
17:13 72.0 °F 47.6 °F 30.12 in West 10.0 mph 16.0 mph 42 % 0.00 in 513 W/m2
17:18 72.0 °F 47.6 °F 30.12 in West 9.0 mph 18.0 mph 42 % 0.00 in 503 W/m2
17:23 72.0 °F 47.6 °F 30.12 in West 10.0 mph 18.0 mph 42 % 0.00 in 483 W/m2
17:28 72.0 °F 48.2 °F 30.12 in WNW 11.0 mph 18.0 mph 43 % 0.00 in 450 W/m2
17:33 72.0 °F 48.2 °F 30.12 in WNW 11.0 mph 18.0 mph 43 % 0.00 in 448 W/m2
17:38 71.8 °F 48.1 °F 30.12 in WNW 11.0 mph 22.0 mph 43 % 0.00 in 446 W/m2
17:43 71.6 °F 48.5 °F 30.13 in WNW 11.0 mph 22.0 mph 44 % 0.00 in 431 W/m2
17:48 71.4 °F 48.4 °F 30.13 in WNW 12.0 mph 18.0 mph 44 % 0.00 in 415 W/m2
17:53 71.4 °F 48.4 °F 30.13 in WNW 12.0 mph 18.0 mph 44 % 0.00 in 404 W/m2
17:58 71.2 °F 48.2 °F 30.13 in WNW 11.0 mph 19.0 mph 44 % 0.00 in 369 W/m2
18:03 71.2 °F 48.2 °F 30.13 in WNW 10.0 mph 19.0 mph 44 % 0.00 in 381 W/m2
18:08 71.2 °F 48.2 °F 30.13 in WNW 10.0 mph 19.0 mph 44 % 0.00 in 373 W/m2
18:13 71.1 °F 48.0 °F 30.13 in WNW 11.0 mph 19.0 mph 44 % 0.00 in 338 W/m2
18:18 70.9 °F 46.6 °F 30.13 in WNW 11.0 mph 18.0 mph 42 % 0.00 in 345 W/m2
18:23 70.9 °F 47.3 °F 30.13 in WNW 10.0 mph 18.0 mph 43 % 0.00 in 304 W/m2
18:28 70.9 °F 47.3 °F 30.13 in WNW 9.0 mph 16.0 mph 43 % 0.00 in 272 W/m2
18:33 70.9 °F 47.3 °F 30.14 in WNW 8.0 mph 16.0 mph 43 % 0.00 in 272 W/m2
18:38 70.7 °F 47.7 °F 30.14 in WNW 8.0 mph 13.0 mph 44 % 0.00 in 269 W/m2
18:43 70.5 °F 48.1 °F 30.14 in WNW 8.0 mph 13.0 mph 45 % 0.00 in 243 W/m2
18:48 70.3 °F 47.4 °F 30.14 in WNW 9.0 mph 13.0 mph 44 % 0.00 in 216 W/m2
18:53 70.0 °F 47.7 °F 30.14 in WNW 9.0 mph 13.0 mph 45 % 0.00 in 186 W/m2
18:58 69.6 °F 47.9 °F 30.14 in WNW 9.0 mph 13.0 mph 46 % 0.00 in 225 W/m2
19:04 69.3 °F 47.6 °F 30.14 in WNW 9.0 mph 16.0 mph 46 % 0.00 in 142 W/m2
19:09 69.1 °F 46.8 °F 30.14 in WNW 10.0 mph 16.0 mph 45 % 0.00 in 214 W/m2
19:14 68.7 °F 46.5 °F 30.15 in WNW 10.0 mph 19.0 mph 45 % 0.00 in 186 W/m2
19:19 68.4 °F 45.6 °F 30.15 in WNW 11.0 mph 19.0 mph 44 % 0.00 in 130 W/m2
19:24 68.0 °F 46.4 °F 30.15 in WNW 10.0 mph 18.0 mph 46 % 0.00 in 88 W/m2
19:29 67.6 °F 47.2 °F 30.15 in WNW 10.0 mph 15.0 mph 48 % 0.00 in 111 W/m2
19:34 67.3 °F 46.9 °F 30.15 in WNW 10.0 mph 15.0 mph 48 % 0.00 in 121 W/m2
19:39 66.9 °F 46.6 °F 30.15 in WNW 10.0 mph 15.0 mph 48 % 0.00 in 162 W/m2
19:44 66.9 °F 46.0 °F 30.15 in WNW 10.0 mph 18.0 mph 47 % 0.00 in 155 W/m2
19:49 66.7 °F 46.4 °F 30.15 in WNW 10.0 mph 18.0 mph 48 % 0.00 in 116 W/m2
19:54 66.4 °F 46.1 °F 30.16 in WNW 10.0 mph 16.0 mph 48 % 0.00 in 60 W/m2
19:59 65.8 °F 45.6 °F 30.16 in WNW 9.0 mph 15.0 mph 48 % 0.00 in 40 W/m2
20:04 65.5 °F 45.3 °F 30.16 in WNW 9.0 mph 16.0 mph 48 % 0.00 in 32 W/m2
20:09 64.9 °F 44.8 °F 30.17 in WNW 10.0 mph 16.0 mph 48 % 0.00 in 30 W/m2
20:14 64.8 °F 45.1 °F 30.17 in WNW 8.0 mph 14.0 mph 49 % 0.00 in 28 W/m2
20:19 64.4 °F 45.3 °F 30.17 in WNW 7.0 mph 11.0 mph 50 % 0.00 in 26 W/m2
20:20 64.2 °F 45.2 °F 30.17 in WNW 7.0 mph 11.0 mph 50 % 0.00 in 26 W/m2
20:25 64.0 °F 45.5 °F 30.17 in WNW 6.0 mph 11.0 mph 51 % 0.00 in 28 W/m2
20:30 63.9 °F 45.9 °F 30.17 in WNW 4.0 mph 11.0 mph 52 % 0.00 in 30 W/m2
20:35 63.7 °F 46.7 °F 30.18 in WNW 2.0 mph 8.0 mph 54 % 0.00 in 28 W/m2
20:40 63.3 °F 46.4 °F 30.18 in WNW 1.0 mph 5.0 mph 54 % 0.00 in 26 W/m2
20:45 63.1 °F 46.2 °F 30.18 in West 1.0 mph 7.0 mph 54 % 0.00 in 25 W/m2
20:50 63.0 °F 46.5 °F 30.18 in West 2.0 mph 9.0 mph 55 % 0.00 in 18 W/m2
20:55 62.8 °F 46.8 °F 30.19 in West 2.0 mph 9.0 mph 56 % 0.00 in 14 W/m2
21:00 62.6 °F 47.1 °F 30.19 in WNW 2.0 mph 9.0 mph 57 % 0.00 in 12 W/m2
21:06 62.4 °F 47.0 °F 30.19 in West 3.0 mph 9.0 mph 57 % 0.00 in 11 W/m2
21:11 62.4 °F 47.9 °F 30.20 in WSW 2.0 mph 7.0 mph 59 % 0.00 in 9 W/m2
21:16 62.2 °F 48.2 °F 30.20 in SW 1.0 mph 5.0 mph 60 % 0.00 in 7 W/m2
21:21 62.1 °F 48.4 °F 30.20 in Calm   1.0 mph 61 % 0.00 in 0 W/m2
21:26 61.9 °F 48.7 °F 30.20 in Calm     62 % 0.00 in 0 W/m2
21:31 61.5 °F 48.8 °F 30.20 in Calm   2.0 mph 63 % 0.00 in 0 W/m2
21:36 61.3 °F 48.6 °F 30.20 in WSW 1.0 mph 4.0 mph 63 % 0.00 in 0 W/m2
21:41 61.2 °F 49.3 °F 30.20 in West 2.0 mph 6.0 mph 65 % 0.00 in 0 W/m2
21:46 61.2 °F 49.3 °F 30.20 in WNW 3.0 mph 6.0 mph 65 % 0.00 in 0 W/m2
21:51 61.0 °F 49.5 °F 30.20 in WNW 4.0 mph 7.0 mph 66 % 0.00 in 0 W/m2
21:56 60.6 °F 49.6 °F 30.20 in WNW 4.0 mph 7.0 mph 67 % 0.00 in 0 W/m2
22:06 59.5 °F 49.7 °F 30.21 in WNW 6.0 mph 11.0 mph 70 % 0.00 in 0 W/m2
22:11 59.4 °F 50.0 °F 30.21 in West 7.0 mph 11.0 mph 71 % 0.00 in 0 W/m2
22:16 59.2 °F 50.2 °F 30.21 in West 7.0 mph 11.0 mph 72 % 0.00 in 0 W/m2
22:21 59.2 °F 50.5 °F 30.21 in West 6.0 mph 10.0 mph 73 % 0.00 in 0 W/m2
22:26 59.0 °F 50.7 °F 30.20 in West 6.0 mph 9.0 mph 74 % 0.00 in 0 W/m2
22:31 58.8 °F 50.5 °F 30.20 in WNW 5.0 mph 8.0 mph 74 % 0.00 in 0 W/m2
22:36 58.6 °F 50.4 °F 30.20 in WNW 5.0 mph 8.0 mph 74 % 0.00 in 0 W/m2
22:41 58.6 °F 50.7 °F 30.20 in WNW 4.0 mph 8.0 mph 75 % 0.00 in 0 W/m2
22:46 58.5 °F 50.6 °F 30.20 in WNW 2.0 mph 7.0 mph 75 % 0.00 in 0 W/m2
22:51 58.3 °F 50.4 °F 30.20 in WNW 1.0 mph 5.0 mph 75 % 0.00 in 0 W/m2
22:56 58.1 °F 50.6 °F 30.20 in NW 1.0 mph 7.0 mph 76 % 0.00 in 0 W/m2
23:01 57.9 °F 50.4 °F 30.20 in NW 2.0 mph 7.0 mph 76 % 0.00 in 0 W/m2
23:06 57.9 °F 50.8 °F 30.20 in NW 3.0 mph 6.0 mph 77 % 0.00 in 0 W/m2
23:11 57.9 °F 50.8 °F 30.20 in WNW 3.0 mph 6.0 mph 77 % 0.00 in 0 W/m2
23:16 57.7 °F 50.9 °F 30.20 in WNW 4.0 mph 6.0 mph 78 % 0.00 in 0 W/m2
23:21 57.7 °F 50.9 °F 30.20 in West 4.0 mph 7.0 mph 78 % 0.00 in 0 W/m2
23:26 57.4 °F 50.9 °F 30.20 in West 4.0 mph 7.0 mph 79 % 0.00 in 0 W/m2
23:31 57.4 °F 50.9 °F 30.20 in West 4.0 mph 6.0 mph 79 % 0.00 in 0 W/m2
23:36 57.0 °F 50.9 °F 30.20 in WNW 3.0 mph 6.0 mph 80 % 0.00 in 0 W/m2
23:41 57.0 °F 51.2 °F 30.20 in WNW 5.0 mph 9.0 mph 81 % 0.00 in 0 W/m2
23:47 57.2 °F 51.4 °F 30.20 in WNW 6.0 mph 9.0 mph 81 % 0.00 in 0 W/m2
23:52 57.4 °F 51.6 °F 30.20 in WNW 5.0 mph 9.0 mph 81 % 0.00 in 0 W/m2
23:57 57.4 °F 51.6 °F 30.20 in WNW 4.0 mph 9.0 mph 81 % 0.00 in 0 W/m2
Delerius-Weather
Compliments of Weather Underground - 2.25 mb

Data updates at regular intervals.